createdAt,value
2022-10-22T00:01:09.917Z,11.83
2022-10-22T00:03:40.200Z,11.46
2022-10-22T00:06:08.068Z,11.15
2022-10-22T00:08:35.958Z,10.89
2022-10-22T00:11:30.141Z,10.66
2022-10-22T00:13:57.899Z,11.04
2022-10-22T00:16:25.646Z,12.96
2022-10-22T00:18:53.532Z,14.42
2022-10-22T00:21:21.261Z,14.83
2022-10-22T00:23:49.322Z,14.00
2022-10-22T00:26:17.120Z,13.10
2022-10-22T00:28:44.882Z,12.44
2022-10-22T00:31:12.866Z,12.01
2022-10-22T00:33:40.517Z,11.64
2022-10-22T00:36:08.926Z,11.34
2022-10-22T00:38:36.640Z,11.50
2022-10-22T00:41:04.583Z,13.25
2022-10-22T00:43:32.573Z,14.85
2022-10-22T00:46:00.257Z,15.29
2022-10-22T00:48:31.381Z,14.29
2022-10-22T00:51:08.255Z,13.30
2022-10-22T00:53:41.985Z,12.57
2022-10-22T00:56:10.615Z,12.02
2022-10-22T00:58:44.062Z,11.60
2022-10-22T01:01:17.115Z,11.19
2022-10-22T01:03:44.966Z,11.20
2022-10-22T01:06:18.608Z,12.83
2022-10-22T01:09:02.902Z,14.47
2022-10-22T01:11:55.700Z,14.67
2022-10-22T01:14:40.113Z,13.45
2022-10-22T01:17:31.063Z,12.49
2022-10-22T01:20:38.005Z,11.76
2022-10-22T01:23:35.883Z,11.16
2022-10-22T01:26:18.146Z,11.44
2022-10-22T01:28:57.924Z,13.34
2022-10-22T01:31:34.102Z,14.20
2022-10-22T01:34:04.422Z,13.22
2022-10-22T01:36:35.160Z,12.25
2022-10-22T01:39:05.077Z,11.57
2022-10-22T01:41:34.466Z,11.10
2022-10-22T01:44:02.327Z,12.18
2022-10-22T01:46:30.177Z,13.78
2022-10-22T01:49:27.770Z,14.01
2022-10-22T01:52:01.558Z,12.82
2022-10-22T01:54:44.706Z,11.91
2022-10-22T01:57:40.979Z,11.23
2022-10-22T02:00:13.927Z,10.71
2022-10-22T02:02:48.905Z,10.36
2022-10-22T02:05:30.550Z,11.02
2022-10-22T02:08:20.685Z,12.83
2022-10-22T02:10:50.297Z,14.08
2022-10-22T02:13:40.697Z,14.07
2022-10-22T02:16:13.025Z,12.92
2022-10-22T02:18:44.233Z,12.07
2022-10-22T02:21:12.529Z,11.45
2022-10-22T02:23:40.589Z,10.97
2022-10-22T02:26:27.996Z,10.65
2022-10-22T02:29:06.854Z,12.01
2022-10-22T02:31:39.082Z,13.81
2022-10-22T02:34:16.544Z,13.97
2022-10-22T02:36:48.228Z,12.87
2022-10-22T02:39:20.797Z,11.97
2022-10-22T02:41:48.927Z,11.30
2022-10-22T02:44:22.292Z,10.74
2022-10-22T02:46:50.826Z,10.81
2022-10-22T02:49:18.537Z,12.39
2022-10-22T02:51:46.285Z,13.91
2022-10-22T02:54:14.036Z,14.59
2022-10-22T02:56:41.778Z,13.63
2022-10-22T02:59:09.535Z,12.48
2022-10-22T03:01:37.209Z,11.66
2022-10-22T03:04:05.313Z,11.07
2022-10-22T03:06:33.093Z,11.06
2022-10-22T03:09:00.931Z,12.89
2022-10-22T03:11:28.740Z,14.19
2022-10-22T03:13:56.406Z,13.53
2022-10-22T03:16:24.135Z,12.48
2022-10-22T03:18:51.830Z,11.71
2022-10-22T03:21:32.010Z,11.13
2022-10-22T03:24:05.766Z,10.61
2022-10-22T03:26:34.356Z,10.68
2022-10-22T03:29:02.636Z,12.66
2022-10-22T03:31:30.394Z,13.88
2022-10-22T03:33:58.106Z,12.91
2022-10-22T03:36:26.019Z,11.78
2022-10-22T03:38:54.204Z,11.00
2022-10-22T03:41:22.097Z,10.92
2022-10-22T03:43:53.060Z,12.53
2022-10-22T03:46:21.195Z,14.10
2022-10-22T03:48:48.884Z,14.04
2022-10-22T03:51:16.618Z,12.89
2022-10-22T03:53:44.366Z,11.93
2022-10-22T03:56:13.107Z,11.24
2022-10-22T03:58:42.152Z,10.71
2022-10-22T04:01:12.134Z,10.71
2022-10-22T04:03:40.924Z,12.28
2022-10-22T04:06:11.512Z,13.17
2022-10-22T04:08:41.399Z,12.52
2022-10-22T04:11:10.455Z,11.67
2022-10-22T04:13:38.380Z,11.00
2022-10-22T04:16:12.310Z,10.92
2022-10-22T04:18:40.930Z,12.60
2022-10-22T04:21:10.371Z,13.70
2022-10-22T04:23:38.598Z,13.04
2022-10-22T04:26:08.019Z,12.04
2022-10-22T04:28:36.053Z,11.24
2022-10-22T04:31:11.704Z,10.67
2022-10-22T04:33:39.876Z,10.20
2022-10-22T04:36:13.536Z,10.36
2022-10-22T04:38:43.196Z,12.22
2022-10-22T04:41:11.949Z,13.94
2022-10-22T04:43:40.330Z,14.47
2022-10-22T04:46:12.078Z,13.42
2022-10-22T04:48:41.713Z,12.31
2022-10-22T04:51:11.983Z,11.50
2022-10-22T04:53:40.660Z,10.88
2022-10-22T04:56:20.818Z,10.97
2022-10-22T04:58:54.679Z,12.88
2022-10-22T05:01:36.981Z,13.90
2022-10-22T05:04:09.082Z,13.05
2022-10-22T05:06:37.000Z,12.08
2022-10-22T05:09:11.642Z,11.37
2022-10-22T05:11:46.408Z,10.83
2022-10-22T05:14:19.841Z,10.76
2022-10-22T05:16:48.868Z,12.28
2022-10-22T05:19:29.507Z,13.83
2022-10-22T05:22:00.212Z,14.04
2022-10-22T05:24:29.313Z,13.04
2022-10-22T05:26:58.297Z,12.14
2022-10-22T05:29:26.334Z,11.49
2022-10-22T05:31:54.368Z,11.01
2022-10-22T05:34:22.164Z,11.13
2022-10-22T05:36:50.069Z,12.74
2022-10-22T05:39:17.735Z,14.08
2022-10-22T05:41:45.440Z,14.57
2022-10-22T05:44:13.963Z,13.52
2022-10-22T05:46:43.511Z,12.41
2022-10-22T05:49:14.370Z,11.67
2022-10-22T05:51:42.380Z,11.19
2022-10-22T05:54:17.543Z,10.89
2022-10-22T05:56:46.187Z,11.25
2022-10-22T05:59:14.026Z,13.26
2022-10-22T06:01:42.245Z,14.88
2022-10-22T06:04:11.956Z,15.17
2022-10-22T06:06:44.318Z,14.29
2022-10-22T06:09:30.682Z,13.39
2022-10-22T06:11:58.766Z,12.42
2022-10-22T06:14:27.354Z,11.84
2022-10-22T06:16:55.671Z,12.84
2022-10-22T06:19:26.947Z,13.65
2022-10-22T06:21:54.652Z,12.83
2022-10-22T06:24:22.363Z,12.00
2022-10-22T06:26:51.635Z,11.92
2022-10-22T06:29:19.594Z,13.70
2022-10-22T06:31:47.327Z,14.88
2022-10-22T06:34:15.598Z,14.23
2022-10-22T06:36:45.166Z,13.49
2022-10-22T06:39:16.218Z,13.00
2022-10-22T06:41:44.213Z,12.73
2022-10-22T06:44:16.679Z,12.54
2022-10-22T06:46:45.056Z,12.35
2022-10-22T06:49:14.710Z,12.78
2022-10-22T06:51:42.557Z,14.82
2022-10-22T06:54:10.976Z,15.88
2022-10-22T06:56:38.658Z,15.15
2022-10-22T06:59:06.409Z,14.32
2022-10-22T07:01:35.865Z,13.70
2022-10-22T07:04:04.997Z,13.29
2022-10-22T07:06:33.180Z,13.03
2022-10-22T07:09:01.051Z,12.81
2022-10-22T07:11:32.947Z,12.61
2022-10-22T07:14:00.698Z,12.89
2022-10-22T07:16:32.067Z,14.71
2022-10-22T07:19:01.499Z,15.97
2022-10-22T07:21:30.131Z,15.44
2022-10-22T07:23:59.264Z,14.72
2022-10-22T07:26:31.148Z,14.17
2022-10-22T07:29:00.737Z,13.70
2022-10-22T07:31:28.627Z,13.36
2022-10-22T07:33:56.826Z,13.10
2022-10-22T07:36:26.908Z,13.28
2022-10-22T07:38:57.625Z,14.86
2022-10-22T07:41:26.915Z,16.20
2022-10-22T07:43:55.364Z,15.78
2022-10-22T07:46:24.668Z,15.10
2022-10-22T07:48:52.848Z,14.60
2022-10-22T07:51:20.604Z,14.21
2022-10-22T07:53:48.366Z,13.91
2022-10-22T07:56:16.285Z,13.70
2022-10-22T07:58:44.055Z,13.51
2022-10-22T08:01:11.908Z,13.35
2022-10-22T08:03:39.633Z,13.46
2022-10-22T08:06:07.651Z,15.06
2022-10-22T08:08:35.365Z,16.50
2022-10-22T08:11:03.593Z,16.15
2022-10-22T08:13:31.360Z,15.40
2022-10-22T08:16:00.421Z,14.75
2022-10-22T08:18:28.793Z,14.29
2022-10-22T08:20:56.926Z,13.93
2022-10-22T08:23:27.655Z,13.70
2022-10-22T08:25:57.801Z,13.52
2022-10-22T08:28:26.090Z,13.42
2022-10-22T08:30:53.814Z,13.40
2022-10-22T08:33:21.870Z,13.86
2022-10-22T08:35:50.992Z,15.79
2022-10-22T08:38:19.769Z,16.95
2022-10-22T08:40:53.053Z,16.72
2022-10-22T08:43:59.279Z,16.30
2022-10-22T08:46:36.245Z,16.00
2022-10-22T08:51:42.082Z,15.65
2022-10-22T08:54:25.344Z,15.55
2022-10-22T09:01:01.180Z,15.32
2022-10-22T09:03:55.101Z,15.28
2022-10-22T09:06:31.553Z,15.20
2022-10-22T09:09:00.339Z,15.10
2022-10-22T09:11:36.110Z,15.05
2022-10-22T09:14:05.305Z,15.04
2022-10-22T09:16:36.025Z,15.07
2022-10-22T09:19:33.654Z,15.07
2022-10-22T09:22:18.363Z,15.04
2022-10-22T09:24:48.827Z,15.05
2022-10-22T09:27:19.418Z,15.11
2022-10-22T09:29:48.382Z,15.20
2022-10-22T09:32:17.926Z,15.25
2022-10-22T09:34:47.869Z,15.32
2022-10-22T09:37:24.985Z,16.12
2022-10-22T09:39:53.560Z,18.21
2022-10-22T09:42:22.367Z,18.90
2022-10-22T09:44:59.629Z,18.30
2022-10-22T09:47:43.503Z,17.61
2022-10-22T09:50:27.981Z,17.07
2022-10-22T09:53:11.831Z,16.69
2022-10-22T09:55:41.962Z,16.35
2022-10-22T09:58:13.933Z,16.08
2022-10-22T10:00:45.686Z,15.86
2022-10-22T10:03:23.634Z,15.64
2022-10-22T10:06:01.395Z,15.41
2022-10-22T10:08:33.514Z,15.15
2022-10-22T10:11:10.157Z,14.94
2022-10-22T10:13:54.619Z,14.74
2022-10-22T10:16:36.840Z,15.09
2022-10-22T10:19:21.935Z,17.08
2022-10-22T10:22:04.768Z,18.09
2022-10-22T10:25:10.288Z,17.42
2022-10-22T10:27:44.799Z,16.55
2022-10-22T10:30:20.638Z,16.03
2022-10-22T10:33:24.370Z,15.68
2022-10-22T10:36:14.828Z,15.36
2022-10-22T10:38:48.735Z,15.76
2022-10-22T10:41:26.239Z,17.83
2022-10-22T10:44:21.401Z,19.07
2022-10-22T10:47:17.307Z,18.18
2022-10-22T10:49:45.998Z,17.24
2022-10-22T10:52:32.521Z,16.73
2022-10-22T10:55:36.034Z,16.29
2022-10-22T10:58:18.831Z,15.90
2022-10-22T11:01:02.990Z,15.57
2022-10-22T11:03:49.686Z,15.92
2022-10-22T11:06:24.572Z,17.92
2022-10-22T11:09:07.180Z,18.89
2022-10-22T11:11:44.272Z,18.25
2022-10-22T11:14:25.209Z,17.53
2022-10-22T11:17:03.518Z,17.06
2022-10-22T11:19:51.598Z,16.80
2022-10-22T11:22:32.085Z,16.55
2022-10-22T11:25:25.637Z,16.36
2022-10-22T11:28:11.599Z,16.17
2022-10-22T11:30:42.714Z,15.98
2022-10-22T11:33:14.953Z,16.22
2022-10-22T11:35:45.271Z,18.01
2022-10-22T11:38:20.295Z,19.30
2022-10-22T11:40:56.597Z,18.64
2022-10-22T11:43:46.130Z,17.68
2022-10-22T11:46:16.637Z,16.88
2022-10-22T11:48:44.651Z,16.26
2022-10-22T11:51:40.182Z,15.75
2022-10-22T11:54:45.561Z,16.09
2022-10-22T11:57:18.982Z,17.64
2022-10-22T11:59:46.604Z,17.44
2022-10-22T12:02:38.901Z,16.59
2022-10-22T12:05:22.222Z,15.79
2022-10-22T12:07:57.204Z,15.77
2022-10-22T12:10:29.286Z,17.56
2022-10-22T12:13:01.790Z,18.43
2022-10-22T12:15:29.574Z,17.70
2022-10-22T12:18:05.062Z,16.91
2022-10-22T12:20:32.832Z,16.26
2022-10-22T12:23:01.034Z,15.99
2022-10-22T12:25:35.900Z,17.18
2022-10-22T12:28:05.059Z,18.72
2022-10-22T12:30:37.010Z,19.29
2022-10-22T12:33:08.121Z,18.48
2022-10-22T12:35:43.941Z,17.46
2022-10-22T12:38:20.213Z,16.73
2022-10-22T12:40:51.362Z,16.21
2022-10-22T12:43:28.897Z,16.38
2022-10-22T12:45:59.186Z,17.98
2022-10-22T12:48:37.461Z,18.82
2022-10-22T12:51:08.169Z,18.06
2022-10-22T12:53:39.392Z,17.27
2022-10-22T12:56:12.241Z,16.67
2022-10-22T12:58:51.730Z,16.63
2022-10-22T13:01:19.875Z,18.23
2022-10-22T13:04:03.605Z,19.44
2022-10-22T13:06:35.266Z,19.78
2022-10-22T13:09:27.872Z,18.91
2022-10-22T13:12:06.647Z,17.93
2022-10-22T13:14:38.138Z,17.31
2022-10-22T13:17:20.316Z,16.79
2022-10-22T13:19:50.120Z,16.33
2022-10-22T13:22:38.820Z,16.41
2022-10-22T13:25:15.989Z,18.05
2022-10-22T13:27:49.622Z,18.98
2022-10-22T13:30:23.017Z,19.14
2022-10-22T13:32:53.564Z,18.17
2022-10-22T13:35:27.503Z,17.23
2022-10-22T13:37:55.336Z,16.49
2022-10-22T13:40:23.239Z,16.33
2022-10-22T13:42:51.033Z,17.72
2022-10-22T13:45:19.044Z,18.71
2022-10-22T13:47:52.083Z,18.98
2022-10-22T13:50:21.332Z,18.11
2022-10-22T13:52:57.630Z,17.15
2022-10-22T13:55:30.446Z,16.40
2022-10-22T13:58:10.817Z,16.28
2022-10-22T14:00:41.419Z,17.76
2022-10-22T14:03:15.323Z,18.73
2022-10-22T14:05:45.554Z,19.24
2022-10-22T14:08:16.966Z,18.96
2022-10-22T14:10:44.991Z,17.88
2022-10-22T14:13:14.860Z,17.04
2022-10-22T14:15:45.585Z,16.89
2022-10-22T14:18:24.346Z,18.25
2022-10-22T14:20:57.270Z,19.38
2022-10-22T14:23:28.640Z,19.65
2022-10-22T14:25:57.309Z,18.58
2022-10-22T14:28:25.510Z,17.44
2022-10-22T14:30:54.460Z,16.59
2022-10-22T14:33:31.983Z,16.30
2022-10-22T14:36:00.827Z,17.68
2022-10-22T14:38:29.442Z,18.74
2022-10-22T14:40:58.004Z,18.94
2022-10-22T14:43:28.684Z,17.98
2022-10-22T14:45:57.828Z,16.92
2022-10-22T14:48:25.543Z,16.12
2022-10-22T14:50:54.581Z,15.93
2022-10-22T14:53:22.438Z,17.22
2022-10-22T14:55:51.590Z,18.30
2022-10-22T14:58:19.511Z,18.93
2022-10-22T15:00:47.358Z,19.08
2022-10-22T15:03:15.259Z,18.17
2022-10-22T15:05:44.934Z,17.25
2022-10-22T15:08:14.710Z,16.51
2022-10-22T15:10:42.689Z,16.28
2022-10-22T15:13:10.567Z,17.55
2022-10-22T15:15:41.520Z,18.74
2022-10-22T15:18:09.334Z,19.18
2022-10-22T15:20:37.302Z,18.28
2022-10-22T15:23:05.205Z,17.24
2022-10-22T15:25:32.956Z,16.41
2022-10-22T15:28:04.640Z,16.85
2022-10-22T15:30:36.919Z,17.94
2022-10-22T15:33:04.756Z,18.25
2022-10-22T15:35:32.634Z,17.35
2022-10-22T15:38:00.471Z,16.19
2022-10-22T15:40:28.300Z,16.47
2022-10-22T15:42:56.313Z,17.82
2022-10-22T15:45:25.222Z,18.52
2022-10-22T15:47:53.008Z,18.31
2022-10-22T15:50:20.894Z,17.06
2022-10-22T15:52:48.738Z,15.98
2022-10-22T15:55:17.046Z,15.64
2022-10-22T15:57:45.274Z,16.90
2022-10-22T16:00:13.970Z,17.98
2022-10-22T16:02:41.954Z,18.70
2022-10-22T16:05:10.260Z,18.11
2022-10-22T16:07:38.183Z,16.82
2022-10-22T16:10:07.805Z,16.22
2022-10-22T16:12:36.176Z,17.23
2022-10-22T16:15:04.416Z,18.21
2022-10-22T16:17:32.236Z,18.57
2022-10-22T16:20:00.310Z,17.64
2022-10-22T16:22:28.337Z,16.43
2022-10-22T16:24:56.223Z,16.11
2022-10-22T16:27:24.141Z,17.38
2022-10-22T16:29:52.155Z,18.16
2022-10-22T16:32:20.039Z,18.63
2022-10-22T16:34:48.007Z,18.44
2022-10-22T16:37:15.932Z,17.20
2022-10-22T16:39:43.732Z,16.13
2022-10-22T16:42:11.699Z,15.76
2022-10-22T16:44:39.579Z,16.90
2022-10-22T16:47:07.463Z,17.81
2022-10-22T16:49:35.286Z,18.14
2022-10-22T16:52:03.203Z,17.41
2022-10-22T16:54:31.048Z,16.33
2022-10-22T16:56:58.850Z,16.41
2022-10-22T16:59:26.684Z,17.64
2022-10-22T17:01:55.143Z,18.38
2022-10-22T17:04:23.796Z,18.23
2022-10-22T17:06:51.700Z,17.04
2022-10-22T17:09:19.688Z,16.48
2022-10-22T17:11:47.748Z,17.45
2022-10-22T17:14:15.665Z,18.04
2022-10-22T17:16:43.757Z,18.24
2022-10-22T17:19:16.061Z,17.91
2022-10-22T17:21:43.972Z,16.83
2022-10-22T17:24:11.884Z,15.90
2022-10-22T17:26:39.649Z,16.07
2022-10-22T17:29:07.800Z,17.34
2022-10-22T17:31:39.382Z,18.10
2022-10-22T17:34:10.650Z,18.46
2022-10-22T17:36:38.445Z,18.41
2022-10-22T17:39:07.783Z,17.38
2022-10-22T17:41:37.249Z,16.33
2022-10-22T17:44:08.978Z,16.86
2022-10-22T17:46:38.167Z,18.08
2022-10-22T17:49:10.529Z,18.83
2022-10-22T17:51:38.288Z,18.06
2022-10-22T17:54:08.954Z,16.71
2022-10-22T17:56:40.263Z,16.16
2022-10-22T17:59:10.827Z,17.32
2022-10-22T18:01:43.451Z,18.27
2022-10-22T18:04:15.550Z,18.19
2022-10-22T18:06:43.437Z,17.10
2022-10-22T18:09:17.291Z,16.13
2022-10-22T18:11:47.624Z,16.79
2022-10-22T18:14:17.887Z,17.80
2022-10-22T18:16:46.083Z,18.38
2022-10-22T18:19:20.698Z,18.23
2022-10-22T18:21:48.950Z,17.01
2022-10-22T18:24:17.647Z,15.92
2022-10-22T18:26:45.469Z,15.64
2022-10-22T18:29:16.154Z,16.95
2022-10-22T18:31:44.367Z,17.87
2022-10-22T18:34:12.815Z,18.15
2022-10-22T18:36:41.642Z,18.39
2022-10-22T18:39:14.514Z,18.18
2022-10-22T18:41:43.348Z,16.97
2022-10-22T18:44:14.079Z,16.27
2022-10-22T18:46:41.916Z,17.24
2022-10-22T18:49:16.022Z,18.30
2022-10-22T18:51:46.393Z,18.51
2022-10-22T18:54:28.636Z,17.38
2022-10-22T18:57:02.708Z,16.03
2022-10-22T18:59:31.662Z,15.64
2022-10-22T19:01:59.859Z,16.77
2022-10-22T19:04:33.671Z,17.65
2022-10-22T19:07:01.487Z,18.20
2022-10-22T19:09:29.225Z,18.19
2022-10-22T19:11:57.140Z,17.17
2022-10-22T19:14:24.963Z,16.03
2022-10-22T19:16:53.032Z,16.37
2022-10-22T19:19:21.836Z,17.66
2022-10-22T19:21:50.243Z,18.42
2022-10-22T19:24:20.228Z,18.19
2022-10-22T19:26:49.009Z,16.98
2022-10-22T19:29:18.763Z,15.87
2022-10-22T19:31:47.735Z,15.92
2022-10-22T19:34:16.140Z,16.91
2022-10-22T19:36:43.915Z,17.52
2022-10-22T19:39:15.734Z,18.08
2022-10-22T19:41:43.881Z,18.49
2022-10-22T19:44:11.751Z,18.27
2022-10-22T19:46:39.527Z,17.10
2022-10-22T19:49:07.330Z,16.03
2022-10-22T19:51:35.075Z,16.34
2022-10-22T19:54:06.241Z,17.56
2022-10-22T19:56:35.925Z,18.27
2022-10-22T19:59:05.630Z,18.58
2022-10-22T20:01:33.437Z,18.61
2022-10-22T20:04:01.731Z,17.63
2022-10-22T20:06:30.721Z,16.51
2022-10-22T20:08:58.577Z,16.14
2022-10-22T20:11:29.929Z,17.41
2022-10-22T20:13:58.451Z,18.36
2022-10-22T20:16:30.031Z,18.97
2022-10-22T20:19:03.679Z,18.56
2022-10-22T20:21:32.047Z,17.29
2022-10-22T20:24:00.081Z,16.26
2022-10-22T20:26:28.687Z,15.93
2022-10-22T20:28:57.946Z,17.25
2022-10-22T20:31:28.550Z,18.32
2022-10-22T20:34:04.291Z,18.87
2022-10-22T20:36:32.769Z,18.93
2022-10-22T20:39:07.073Z,17.85
2022-10-22T20:41:37.933Z,16.73
2022-10-22T20:44:06.144Z,16.29
2022-10-22T20:46:34.890Z,17.51
2022-10-22T20:49:05.990Z,18.69
2022-10-22T20:51:35.493Z,18.91
2022-10-22T20:54:04.265Z,17.81
2022-10-22T20:56:32.383Z,16.58
2022-10-22T20:59:04.912Z,16.43
2022-10-22T21:01:38.613Z,17.54
2022-10-22T21:04:07.482Z,18.37
2022-10-22T21:06:38.283Z,18.53
2022-10-22T21:09:10.636Z,17.49
2022-10-22T21:11:40.497Z,16.33
2022-10-22T21:14:10.787Z,16.33
2022-10-22T21:16:46.180Z,17.67
2022-10-22T21:19:13.801Z,18.51
2022-10-22T21:21:41.601Z,18.96
2022-10-22T21:24:09.681Z,18.84
2022-10-22T21:26:39.108Z,17.78
2022-10-22T21:29:07.262Z,16.70
2022-10-22T21:31:35.393Z,16.04
2022-10-22T21:34:03.072Z,16.85
2022-10-22T21:36:30.923Z,17.78
2022-10-22T21:38:58.603Z,18.20
2022-10-22T21:41:26.228Z,18.43
2022-10-22T21:43:53.960Z,18.50
2022-10-22T21:46:24.445Z,17.71
2022-10-22T21:49:02.193Z,16.70
2022-10-22T21:51:33.111Z,16.31
2022-10-22T21:54:00.969Z,17.47
2022-10-22T21:56:32.811Z,18.10
2022-10-22T21:59:02.043Z,18.47
2022-10-22T22:01:30.376Z,18.73
2022-10-22T22:03:58.540Z,18.71
2022-10-22T22:06:30.734Z,17.82
2022-10-22T22:09:00.039Z,16.79
2022-10-22T22:11:28.833Z,16.00
2022-10-22T22:13:58.165Z,15.85
2022-10-22T22:16:29.529Z,17.09
2022-10-22T22:19:00.227Z,17.98
2022-10-22T22:21:28.768Z,18.71
2022-10-22T22:23:57.857Z,19.20
2022-10-22T22:26:29.620Z,19.15
2022-10-22T22:28:59.439Z,18.05
2022-10-22T22:31:29.848Z,16.93
2022-10-22T22:34:07.460Z,16.09
2022-10-22T22:36:37.883Z,15.97
2022-10-22T22:39:07.694Z,17.43
2022-10-22T22:41:35.423Z,18.36
2022-10-22T22:44:03.198Z,18.84
2022-10-22T22:46:31.333Z,19.04
2022-10-22T22:48:59.044Z,18.00
2022-10-22T22:51:26.864Z,16.91
2022-10-22T22:53:54.797Z,16.40
2022-10-22T22:56:25.170Z,17.40
2022-10-22T22:58:52.919Z,18.45
2022-10-22T23:01:36.229Z,18.83
2022-10-22T23:04:06.941Z,17.66
2022-10-22T23:06:37.216Z,16.51
2022-10-22T23:09:06.900Z,16.10
2022-10-22T23:11:35.137Z,17.26
2022-10-22T23:14:05.509Z,18.15
2022-10-22T23:16:34.929Z,18.79
2022-10-22T23:19:04.228Z,18.61
2022-10-22T23:21:35.019Z,17.57
2022-10-22T23:24:06.123Z,16.48
2022-10-22T23:26:37.145Z,16.15
2022-10-22T23:29:08.280Z,17.29
2022-10-22T23:31:35.984Z,18.21
2022-10-22T23:34:04.056Z,18.56
2022-10-22T23:36:31.820Z,18.50
2022-10-22T23:38:59.539Z,17.51
2022-10-22T23:41:27.348Z,16.49
2022-10-22T23:43:55.024Z,16.07
2022-10-22T23:46:22.811Z,17.20
2022-10-22T23:48:50.548Z,18.28
2022-10-22T23:51:18.318Z,18.55
2022-10-22T23:53:47.581Z,17.86
2022-10-22T23:56:18.015Z,16.76
2022-10-22T23:58:45.800Z,16.32
